createdAt,value
2022-08-12T00:00:17.826Z,11.48
2022-08-12T00:05:38.578Z,9.25
2022-08-12T00:11:19.187Z,7.82
2022-08-12T00:16:39.874Z,5.78
2022-08-12T00:22:00.562Z,6.05
2022-08-12T00:27:21.151Z,8.65
2022-08-12T00:32:54.495Z,6.88
2022-08-12T00:38:20.785Z,9.35
2022-08-12T00:43:24.063Z,10.90
2022-08-12T00:48:26.593Z,8.60
2022-08-12T00:53:30.748Z,5.85
2022-08-12T00:58:33.460Z,7.90
2022-08-12T01:09:15.813Z,5.22
2022-08-12T01:14:19.933Z,5.43
2022-08-12T01:19:23.883Z,6.20
2022-08-12T01:24:46.832Z,10.52
2022-08-12T01:29:49.829Z,8.85
2022-08-12T01:35:03.380Z,7.95
2022-08-12T01:40:33.786Z,7.13
2022-08-12T01:45:29.662Z,9.27
2022-08-12T01:51:00.323Z,7.60
2022-08-12T01:56:03.968Z,7.63
2022-08-12T02:01:09.519Z,6.95
2022-08-12T02:06:39.728Z,6.43
2022-08-12T02:12:03.154Z,9.68
2022-08-12T02:17:55.584Z,12.60
2022-08-12T02:23:00.093Z,9.25
2022-08-12T02:28:07.751Z,10.65
2022-08-12T02:33:11.195Z,9.63
2022-08-12T02:38:13.174Z,7.95
2022-08-12T02:43:19.809Z,9.52
2022-08-12T02:48:47.363Z,10.10
2022-08-12T02:54:04.536Z,7.60
2022-08-12T02:59:12.434Z,10.20
2022-08-12T03:04:21.201Z,12.93
2022-08-12T03:09:24.754Z,10.07
2022-08-12T03:14:30.347Z,7.55
2022-08-12T03:19:32.439Z,9.30
2022-08-12T03:24:35.554Z,8.07
2022-08-12T03:29:49.886Z,10.40
2022-08-12T03:34:57.323Z,12.85
2022-08-12T03:39:59.526Z,8.10
2022-08-12T03:45:50.038Z,7.90
2022-08-12T03:51:14.537Z,11.05
2022-08-12T03:56:35.163Z,9.02
2022-08-12T04:01:40.921Z,8.13
2022-08-12T04:06:47.085Z,9.35
2022-08-12T04:12:08.040Z,7.57
2022-08-12T04:17:10.017Z,10.32
2022-08-12T04:22:12.460Z,12.75
2022-08-12T04:27:14.432Z,7.03
2022-08-12T04:32:16.430Z,11.80
2022-08-12T04:37:18.328Z,8.48
2022-08-12T04:42:21.234Z,11.60
2022-08-12T04:52:24.817Z,9.82
2022-08-12T04:57:26.838Z,14.25
2022-08-12T05:02:28.986Z,11.43
2022-08-12T05:07:30.927Z,10.10
2022-08-12T05:12:39.581Z,11.07
2022-08-12T05:17:42.382Z,11.95
2022-08-12T05:22:45.881Z,11.38
2022-08-12T05:27:58.775Z,13.60
2022-08-12T05:33:06.307Z,8.70
2022-08-12T05:38:27.949Z,10.20
2022-08-12T05:43:29.930Z,9.77
2022-08-12T05:48:32.587Z,7.32
2022-08-12T05:53:34.520Z,10.02
2022-08-12T05:58:36.413Z,8.80
2022-08-12T06:03:38.302Z,8.25
2022-08-12T06:08:44.951Z,8.30
2022-08-12T06:13:54.162Z,7.68
2022-08-12T06:18:56.363Z,8.68
2022-08-12T06:23:58.409Z,8.75
2022-08-12T06:29:00.812Z,7.72
2022-08-12T06:35:26.610Z,12.43
2022-08-12T06:39:24.878Z,6.55
2022-08-12T06:44:26.866Z,10.05
2022-08-12T06:49:34.841Z,8.30
2022-08-12T06:54:36.676Z,12.45
2022-08-12T06:59:41.161Z,8.93
2022-08-12T07:04:43.467Z,9.05
2022-08-12T07:10:05.260Z,8.95
2022-08-12T07:15:07.869Z,9.77
2022-08-12T07:20:29.905Z,8.65
2022-08-12T07:25:38.536Z,12.98
2022-08-12T07:30:45.074Z,12.38
2022-08-12T07:35:48.316Z,8.70
2022-08-12T07:40:52.823Z,11.73
2022-08-12T07:46:00.483Z,9.80
2022-08-12T07:51:02.576Z,10.32
2022-08-12T07:56:05.982Z,9.10
2022-08-12T08:01:12.039Z,7.03
2022-08-12T08:06:19.894Z,9.35
2022-08-12T08:11:42.406Z,8.48
2022-08-12T08:16:44.288Z,8.45
2022-08-12T08:21:46.418Z,5.80
2022-08-12T08:26:50.345Z,7.85
2022-08-12T08:31:58.865Z,6.63
2022-08-12T08:37:00.654Z,8.20
2022-08-12T08:42:24.167Z,6.93
2022-08-12T08:47:26.181Z,8.52
2022-08-12T08:52:40.030Z,5.07
2022-08-12T09:08:13.240Z,7.00
2022-08-12T09:14:10.891Z,9.07
2022-08-12T09:24:16.404Z,8.82
2022-08-12T09:30:11.490Z,5.82
2022-08-12T09:34:44.150Z,7.90
2022-08-12T09:40:05.535Z,11.57
2022-08-12T09:45:24.680Z,6.65
2022-08-12T09:50:50.633Z,6.03
2022-08-12T09:55:59.406Z,21.20
2022-08-12T10:01:23.186Z,10.60
2022-08-12T10:06:32.396Z,4.50
2022-08-12T10:12:12.348Z,5.88
2022-08-12T10:17:15.525Z,8.65
2022-08-12T10:22:39.240Z,7.03
2022-08-12T10:28:04.831Z,9.70
2022-08-12T10:33:18.649Z,8.52
2022-08-12T10:38:38.529Z,9.02
2022-08-12T10:43:55.922Z,7.43
2022-08-12T10:49:06.262Z,11.27
2022-08-12T10:54:26.121Z,8.05
2022-08-12T11:05:17.568Z,14.50
2022-08-12T11:10:26.417Z,9.13
2022-08-12T11:16:02.547Z,8.10
2022-08-12T11:20:52.091Z,10.45
2022-08-12T11:25:57.834Z,7.43
2022-08-12T11:31:00.973Z,11.02
2022-08-12T11:36:16.657Z,7.70
2022-08-12T11:41:31.822Z,9.63
2022-08-12T11:46:37.052Z,8.25
2022-08-12T11:51:39.758Z,10.52
2022-08-12T11:56:42.887Z,12.48
2022-08-12T12:02:02.604Z,5.93
2022-08-12T12:07:11.315Z,11.68
2022-08-12T12:12:13.387Z,10.40
2022-08-12T12:17:15.260Z,8.70
2022-08-12T12:22:23.407Z,13.23
2022-08-12T12:28:01.965Z,11.02
2022-08-12T12:32:53.530Z,10.73
2022-08-12T12:38:12.456Z,11.95
2022-08-12T12:43:15.896Z,10.50
2022-08-12T12:48:19.673Z,13.93
2022-08-12T12:54:07.152Z,18.40
2022-08-12T12:58:47.069Z,13.90
2022-08-12T13:03:54.116Z,17.80
2022-08-12T13:14:07.133Z,14.75
2022-08-12T13:19:10.465Z,18.77
2022-08-12T13:24:12.373Z,19.00
2022-08-12T13:29:15.325Z,19.50
2022-08-12T13:34:33.948Z,19.45
2022-08-12T13:39:38.742Z,22.58
2022-08-12T13:44:40.708Z,21.70
2022-08-12T13:54:58.171Z,22.73
2022-08-12T14:00:00.787Z,20.77
2022-08-12T14:05:31.006Z,24.15
2022-08-12T14:10:50.633Z,29.67
2022-08-12T14:16:02.354Z,40.33
2022-08-12T14:21:12.483Z,32.85
2022-08-12T14:26:25.084Z,33.75
2022-08-12T14:31:31.898Z,32.75
2022-08-12T14:36:34.337Z,32.25
2022-08-12T14:41:48.514Z,41.00
2022-08-12T14:46:59.299Z,50.65
2022-08-12T14:52:57.661Z,53.28
2022-08-12T14:57:24.139Z,53.38
2022-08-12T15:02:29.745Z,50.00
2022-08-12T15:07:34.052Z,61.28
2022-08-12T15:12:52.062Z,61.90
2022-08-12T15:18:02.355Z,46.53
2022-08-12T15:23:05.751Z,54.15
2022-08-12T15:28:24.535Z,65.20
2022-08-12T15:33:45.393Z,61.97
2022-08-12T15:38:48.103Z,48.65
2022-08-12T15:44:16.632Z,49.50
2022-08-12T15:49:16.954Z,53.35
2022-08-12T15:54:33.593Z,54.15
2022-08-12T16:00:00.231Z,69.85
2022-08-12T16:05:00.284Z,62.78
2022-08-12T16:10:06.941Z,65.28
2022-08-12T16:15:12.134Z,65.13
2022-08-12T16:20:21.482Z,57.30
2022-08-12T16:25:35.274Z,51.90
2022-08-12T16:30:50.176Z,58.95
2022-08-12T16:35:54.120Z,60.05
2022-08-12T16:40:57.030Z,47.58
2022-08-12T16:46:32.401Z,51.50
2022-08-12T16:51:26.732Z,55.08
2022-08-12T16:56:28.903Z,58.80
2022-08-12T17:01:35.057Z,50.67
2022-08-12T17:06:48.081Z,56.53
2022-08-12T17:11:50.532Z,55.40
2022-08-12T17:16:55.093Z,55.28
2022-08-12T17:22:01.608Z,51.22
2022-08-12T17:27:09.746Z,59.65
2022-08-12T17:32:22.208Z,47.53
2022-08-12T17:37:30.241Z,57.25
2022-08-12T17:42:38.519Z,51.90
2022-08-12T17:47:42.277Z,57.92
2022-08-12T17:52:44.263Z,50.00
2022-08-12T17:57:55.483Z,51.85
2022-08-12T18:02:58.139Z,42.40
2022-08-12T18:08:01.281Z,40.55
2022-08-12T18:13:04.542Z,43.85
2022-08-12T18:18:16.618Z,39.33
2022-08-12T18:23:23.745Z,50.60
2022-08-12T18:28:29.170Z,42.70
2022-08-12T18:33:41.740Z,38.15
2022-08-12T18:38:51.286Z,41.67
2022-08-12T18:44:09.472Z,41.60
2022-08-12T18:49:18.820Z,44.00
2022-08-12T18:54:25.874Z,43.20
2022-08-12T19:00:01.273Z,41.53
2022-08-12T19:04:53.473Z,48.70
2022-08-12T19:10:00.065Z,41.08
2022-08-12T19:15:08.442Z,41.10
2022-08-12T19:20:14.760Z,41.15
2022-08-12T19:25:23.686Z,49.35
2022-08-12T19:31:04.000Z,43.13
2022-08-12T19:36:07.709Z,53.28
2022-08-12T19:41:42.792Z,51.42
2022-08-12T19:46:51.879Z,38.17
2022-08-12T19:51:55.556Z,43.13
2022-08-12T19:56:58.566Z,47.13
2022-08-12T20:02:05.043Z,54.55
2022-08-12T20:07:24.011Z,47.47
2022-08-12T20:12:32.455Z,38.72
2022-08-12T20:17:36.509Z,38.40
2022-08-12T20:22:53.806Z,46.03
2022-08-12T20:28:04.478Z,42.38
2022-08-12T20:33:17.595Z,42.47
2022-08-12T20:38:26.760Z,41.38
2022-08-12T20:43:33.770Z,36.50
2022-08-12T20:48:35.657Z,42.72
2022-08-12T20:53:57.697Z,38.75
2022-08-12T20:59:19.864Z,39.92
2022-08-12T21:04:43.837Z,36.83
2022-08-12T21:09:48.008Z,34.38
2022-08-12T21:14:58.884Z,41.30
2022-08-12T21:20:06.112Z,38.45
2022-08-12T21:25:14.208Z,39.85
2022-08-12T21:30:19.157Z,41.20
2022-08-12T21:35:22.515Z,33.45
2022-08-12T21:40:37.062Z,39.22
2022-08-12T21:46:00.567Z,35.17
2022-08-12T21:51:03.348Z,42.15
2022-08-12T21:56:34.219Z,41.05
2022-08-12T22:01:44.302Z,33.65
2022-08-12T22:06:53.637Z,34.55
2022-08-12T22:12:20.690Z,37.05
2022-08-12T22:17:49.439Z,36.70
2022-08-12T22:22:56.102Z,33.08
2022-08-12T22:28:17.820Z,37.22
2022-08-12T22:33:26.596Z,37.22
2022-08-12T22:38:29.871Z,35.33
2022-08-12T22:43:59.820Z,37.55
2022-08-12T22:49:03.817Z,34.15
2022-08-12T22:54:10.220Z,35.92
2022-08-12T22:59:51.023Z,36.47
2022-08-12T23:04:52.956Z,41.63
2022-08-12T23:09:57.684Z,34.95
2022-08-12T23:14:59.617Z,37.90
2022-08-12T23:20:01.914Z,27.45
2022-08-12T23:25:04.023Z,37.67
2022-08-12T23:30:18.708Z,31.45
2022-08-12T23:35:22.720Z,38.17
2022-08-12T23:40:25.837Z,30.55
2022-08-12T23:45:31.647Z,36.65
2022-08-12T23:50:36.128Z,35.05
2022-08-12T23:55:41.047Z,34.45
